createdAt,value
2023-02-11T00:02:47.813Z,98.90
2023-02-11T00:06:01.239Z,98.61
2023-02-11T00:09:13.565Z,98.51
2023-02-11T00:12:26.223Z,99.18
2023-02-11T00:15:38.598Z,99.20
2023-02-11T00:18:53.111Z,99.08
2023-02-11T00:22:05.678Z,99.49
2023-02-11T00:25:18.284Z,99.90
2023-02-11T00:28:30.728Z,98.77
2023-02-11T00:31:43.528Z,98.99
2023-02-11T00:34:55.962Z,99.29
2023-02-11T00:38:08.608Z,100.00
2023-02-11T00:41:21.155Z,100.00
2023-02-11T00:44:33.773Z,99.13
2023-02-11T00:47:46.171Z,99.09
2023-02-11T00:50:58.805Z,99.82
2023-02-11T00:54:11.186Z,100.00
2023-02-11T00:57:24.584Z,99.39
2023-02-11T01:00:36.958Z,98.03
2023-02-11T01:03:49.602Z,97.84
2023-02-11T01:07:02.024Z,98.45
2023-02-11T01:10:14.629Z,98.32
2023-02-11T01:13:27.119Z,98.23
2023-02-11T01:16:40.371Z,99.87
2023-02-11T01:19:52.711Z,99.87
2023-02-11T01:23:06.453Z,99.83
2023-02-11T01:26:18.766Z,100.00
2023-02-11T01:29:31.397Z,100.00
2023-02-11T01:32:43.756Z,100.00
2023-02-11T01:35:59.353Z,100.00
2023-02-11T01:39:13.411Z,100.00
2023-02-11T01:42:25.905Z,100.00
2023-02-11T01:45:43.152Z,100.00
2023-02-11T01:49:08.008Z,100.00
2023-02-11T01:52:22.428Z,100.00
2023-02-11T01:55:53.752Z,100.00
2023-02-11T01:59:12.089Z,100.00
2023-02-11T02:02:30.978Z,100.00
2023-02-11T02:06:00.018Z,100.00
2023-02-11T02:09:19.837Z,100.00
2023-02-11T02:12:32.527Z,100.00
2023-02-11T02:15:54.093Z,100.00
2023-02-11T02:19:25.216Z,100.00
2023-02-11T02:23:12.997Z,100.00
2023-02-11T02:26:44.409Z,100.00
2023-02-11T02:30:14.843Z,100.00
2023-02-11T02:33:37.949Z,100.00
2023-02-11T02:37:04.999Z,100.00
2023-02-11T02:40:24.008Z,99.97
2023-02-11T02:43:40.091Z,99.86
2023-02-11T02:46:52.745Z,100.00
2023-02-11T02:50:06.172Z,99.68
2023-02-11T02:53:26.647Z,99.24
2023-02-11T02:56:46.362Z,100.00
2023-02-11T03:00:17.718Z,99.59
2023-02-11T03:03:54.466Z,100.00
2023-02-11T03:07:52.184Z,100.00
2023-02-11T03:11:04.543Z,100.00
2023-02-11T03:14:17.740Z,100.00
2023-02-11T03:17:30.035Z,100.00
2023-02-11T03:20:43.565Z,100.00
2023-02-11T03:23:57.800Z,100.00
2023-02-11T03:27:21.000Z,100.00
2023-02-11T03:30:37.120Z,100.00
2023-02-11T03:34:10.061Z,99.68
2023-02-11T03:38:02.345Z,99.35
2023-02-11T03:41:15.048Z,100.00
2023-02-11T03:44:30.865Z,100.00
2023-02-11T03:47:47.193Z,100.00
2023-02-11T03:51:00.188Z,100.00
2023-02-11T03:54:14.964Z,100.00
2023-02-11T03:57:28.991Z,100.00
2023-02-11T04:00:42.247Z,100.00
2023-02-11T04:03:54.828Z,100.00
2023-02-11T04:07:07.206Z,100.00
2023-02-11T04:10:19.896Z,100.00
2023-02-11T04:13:32.863Z,99.83
2023-02-11T04:16:45.483Z,100.00
2023-02-11T04:19:57.833Z,100.00
2023-02-11T04:23:10.438Z,99.83
2023-02-11T04:26:22.768Z,99.68
2023-02-11T04:29:35.431Z,99.13
2023-02-11T04:32:47.827Z,99.52
2023-02-11T04:36:00.454Z,99.68
2023-02-11T04:39:12.810Z,99.67
2023-02-11T04:42:25.473Z,99.67
2023-02-11T04:45:37.869Z,99.62
2023-02-11T04:48:50.515Z,99.43
2023-02-11T04:52:02.841Z,99.24
2023-02-11T04:55:15.519Z,100.00
2023-02-11T04:58:27.832Z,99.91
2023-02-11T05:01:40.669Z,100.00
2023-02-11T05:04:53.067Z,100.00
2023-02-11T05:08:05.685Z,100.00
2023-02-11T05:11:19.902Z,100.00
2023-02-11T05:14:33.350Z,100.00
2023-02-11T05:17:45.825Z,100.00
2023-02-11T05:20:58.415Z,100.00
2023-02-11T05:24:10.744Z,100.00
2023-02-11T05:27:24.949Z,100.00
2023-02-11T05:30:37.326Z,100.00
2023-02-11T05:33:50.046Z,100.00
2023-02-11T05:37:02.439Z,100.00
2023-02-11T05:40:15.136Z,100.00
2023-02-11T05:43:27.570Z,100.00
2023-02-11T05:46:40.324Z,100.00
2023-02-11T05:49:53.710Z,100.00
2023-02-11T05:53:06.848Z,100.00
2023-02-11T05:56:19.436Z,100.00
2023-02-11T05:59:32.096Z,99.82
2023-02-11T06:02:44.527Z,100.00
2023-02-11T06:05:57.223Z,100.00
2023-02-11T06:09:10.448Z,98.07
2023-02-11T06:12:23.064Z,99.04
2023-02-11T06:15:35.407Z,99.50
2023-02-11T06:18:48.180Z,99.82
2023-02-11T06:22:00.552Z,100.00
2023-02-11T06:25:13.329Z,99.64
2023-02-11T06:28:25.679Z,99.23
2023-02-11T06:31:39.100Z,97.96
2023-02-11T06:34:51.595Z,99.61
2023-02-11T06:38:04.260Z,98.61
2023-02-11T06:41:17.624Z,99.13
2023-02-11T06:44:30.240Z,99.01
2023-02-11T06:47:42.686Z,99.22
2023-02-11T06:50:55.303Z,97.78
2023-02-11T06:54:07.721Z,97.85
2023-02-11T06:57:20.311Z,97.88
2023-02-11T07:00:32.642Z,98.17
2023-02-11T07:03:45.734Z,97.96
2023-02-11T07:06:58.066Z,97.37
2023-02-11T07:10:10.809Z,98.11
2023-02-11T07:13:23.187Z,97.67
2023-02-11T07:16:36.026Z,97.99
2023-02-11T07:19:48.376Z,97.55
2023-02-11T07:23:01.085Z,98.15
2023-02-11T07:26:14.905Z,99.26
2023-02-11T07:29:27.561Z,97.54
2023-02-11T07:32:39.952Z,98.58
2023-02-11T07:35:52.868Z,96.51
2023-02-11T07:39:05.390Z,96.47
2023-02-11T07:42:18.042Z,96.91
2023-02-11T07:45:30.475Z,95.26
2023-02-11T07:48:43.084Z,94.22
2023-02-11T07:51:56.755Z,94.20
2023-02-11T07:55:10.133Z,94.19
2023-02-11T07:58:22.808Z,93.63
2023-02-11T08:01:35.396Z,92.84
2023-02-11T08:04:48.010Z,92.28
2023-02-11T08:08:00.379Z,90.20
2023-02-11T08:11:14.900Z,90.54
2023-02-11T08:14:28.587Z,90.27
2023-02-11T08:17:41.258Z,88.70
2023-02-11T08:20:53.706Z,87.30
2023-02-11T08:24:06.762Z,86.66
2023-02-11T08:27:19.047Z,85.48
2023-02-11T08:30:31.716Z,84.82
2023-02-11T08:33:44.246Z,84.50
2023-02-11T08:36:56.941Z,83.89
2023-02-11T08:40:09.575Z,83.39
2023-02-11T08:43:23.301Z,82.88
2023-02-11T08:46:35.636Z,82.23
2023-02-11T08:49:48.232Z,81.94
2023-02-11T08:53:00.602Z,80.52
2023-02-11T08:56:13.912Z,81.31
2023-02-11T08:59:26.252Z,81.65
2023-02-11T09:02:38.981Z,79.92
2023-02-11T09:05:53.332Z,80.21
2023-02-11T09:09:06.040Z,79.00
2023-02-11T09:12:18.369Z,80.37
2023-02-11T09:15:31.002Z,81.06
2023-02-11T09:18:44.469Z,79.32
2023-02-11T09:21:57.211Z,78.97
2023-02-11T09:25:09.645Z,78.25
2023-02-11T09:28:23.599Z,76.62
2023-02-11T09:31:36.256Z,77.17
2023-02-11T09:34:48.890Z,77.36
2023-02-11T09:38:01.310Z,77.55
2023-02-11T09:41:22.883Z,77.13
2023-02-11T09:44:36.162Z,75.01
2023-02-11T09:47:58.348Z,74.46
2023-02-11T09:51:36.653Z,73.95
2023-02-11T09:54:57.906Z,73.78
2023-02-11T09:58:14.792Z,74.00
2023-02-11T10:01:36.116Z,72.70
2023-02-11T10:05:21.901Z,72.27
2023-02-11T10:09:07.955Z,71.01
2023-02-11T10:12:35.820Z,69.41
2023-02-11T10:15:50.402Z,67.69
2023-02-11T10:19:07.426Z,68.95
2023-02-11T10:22:25.909Z,66.30
2023-02-11T10:25:40.342Z,64.13
2023-02-11T10:28:53.343Z,63.75
2023-02-11T10:32:30.311Z,65.47
2023-02-11T10:35:43.953Z,64.67
2023-02-11T10:39:02.259Z,64.75
2023-02-11T10:42:16.513Z,64.79
2023-02-11T10:45:50.056Z,65.74
2023-02-11T10:49:03.475Z,66.46
2023-02-11T10:52:25.047Z,65.86
2023-02-11T10:55:37.362Z,66.47
2023-02-11T10:59:00.801Z,65.71
2023-02-11T11:02:22.161Z,65.85
2023-02-11T11:05:46.060Z,65.93
2023-02-11T11:08:58.400Z,65.80
2023-02-11T11:12:25.983Z,65.56
2023-02-11T11:15:38.353Z,65.25
2023-02-11T11:18:53.388Z,66.11
2023-02-11T11:22:05.743Z,65.49
2023-02-11T11:25:29.354Z,65.41
2023-02-11T11:29:09.215Z,65.72
2023-02-11T11:32:34.355Z,66.38
2023-02-11T11:35:59.176Z,64.53
2023-02-11T11:39:23.194Z,64.60
2023-02-11T11:42:40.524Z,62.47
2023-02-11T11:45:57.677Z,61.09
2023-02-11T11:50:10.429Z,62.83
2023-02-11T11:53:31.800Z,62.91
2023-02-11T11:56:56.620Z,62.56
2023-02-11T12:00:36.067Z,63.06
2023-02-11T12:04:21.856Z,62.96
2023-02-11T12:07:46.017Z,63.01
2023-02-11T12:11:24.021Z,63.89
2023-02-11T12:14:52.472Z,62.50
2023-02-11T12:18:13.673Z,63.60
2023-02-11T12:21:30.547Z,61.55
2023-02-11T12:24:55.357Z,61.21
2023-02-11T12:28:23.165Z,61.43
2023-02-11T12:31:50.931Z,61.21
2023-02-11T12:35:26.486Z,60.26
2023-02-11T12:38:43.241Z,59.13
2023-02-11T12:42:24.475Z,58.81
2023-02-11T12:46:08.071Z,59.30
2023-02-11T12:49:45.678Z,58.87
2023-02-11T12:53:21.689Z,59.14
2023-02-11T12:56:53.788Z,59.79
2023-02-11T13:00:31.489Z,59.75
2023-02-11T13:03:47.216Z,59.69
2023-02-11T13:07:02.662Z,59.54
2023-02-11T13:10:15.658Z,59.33
2023-02-11T13:14:09.560Z,59.30
2023-02-11T13:17:32.936Z,58.83
2023-02-11T13:21:19.429Z,58.67
2023-02-11T13:24:48.061Z,58.01
2023-02-11T13:28:09.663Z,56.24
2023-02-11T13:31:26.706Z,56.20
2023-02-11T13:34:39.141Z,56.37
2023-02-11T13:37:51.358Z,55.31
2023-02-11T13:41:04.830Z,54.69
2023-02-11T13:44:24.993Z,54.11
2023-02-11T13:47:43.547Z,53.94
2023-02-11T13:51:15.769Z,54.65
2023-02-11T13:54:38.390Z,54.66
2023-02-11T13:58:13.954Z,53.99
2023-02-11T14:01:44.736Z,53.55
2023-02-11T14:05:22.192Z,52.11
2023-02-11T14:08:53.235Z,51.03
2023-02-11T14:12:24.684Z,50.35
2023-02-11T14:15:40.521Z,50.33
2023-02-11T14:18:56.064Z,51.46
2023-02-11T14:22:08.259Z,50.85
2023-02-11T14:25:23.335Z,50.92
2023-02-11T14:28:36.136Z,51.31
2023-02-11T14:32:17.971Z,50.37
2023-02-11T14:35:33.258Z,51.04
2023-02-11T14:38:45.761Z,50.15
2023-02-11T14:41:58.121Z,51.00
2023-02-11T14:45:12.105Z,50.77
2023-02-11T14:48:30.023Z,50.09
2023-02-11T14:51:42.670Z,50.05
2023-02-11T14:55:27.492Z,49.66
2023-02-11T14:58:40.329Z,49.31
2023-02-11T15:01:54.710Z,50.36
2023-02-11T15:05:20.266Z,50.14
2023-02-11T15:08:38.265Z,50.69
2023-02-11T15:11:51.068Z,50.54
2023-02-11T15:15:03.486Z,50.98
2023-02-11T15:18:22.804Z,50.98
2023-02-11T15:21:35.570Z,50.77
2023-02-11T15:25:16.223Z,50.36
2023-02-11T15:28:30.360Z,50.25
2023-02-11T15:31:43.578Z,51.15
2023-02-11T15:34:58.185Z,51.71
2023-02-11T15:38:14.296Z,51.94
2023-02-11T15:41:37.472Z,52.37
2023-02-11T15:44:56.617Z,52.79
2023-02-11T15:48:16.677Z,53.53
2023-02-11T15:51:31.469Z,53.92
2023-02-11T15:54:46.015Z,53.74
2023-02-11T15:58:00.526Z,53.28
2023-02-11T16:01:12.915Z,53.85
2023-02-11T16:04:26.410Z,54.60
2023-02-11T16:07:46.404Z,53.09
2023-02-11T16:10:59.141Z,52.26
2023-02-11T16:14:34.335Z,52.56
2023-02-11T16:17:46.960Z,53.31
2023-02-11T16:20:59.595Z,52.84
2023-02-11T16:24:21.587Z,53.61
2023-02-11T16:27:39.573Z,54.31
2023-02-11T16:30:53.928Z,54.50
2023-02-11T16:34:19.640Z,54.86
2023-02-11T16:37:32.602Z,55.68
2023-02-11T16:40:49.080Z,56.69
2023-02-11T16:44:01.895Z,57.58
2023-02-11T16:47:20.959Z,58.20
2023-02-11T16:50:33.617Z,58.25
2023-02-11T16:53:46.014Z,58.89
2023-02-11T16:56:58.767Z,59.09
2023-02-11T17:00:11.691Z,59.98
2023-02-11T17:03:26.148Z,60.43
2023-02-11T17:06:39.260Z,60.21
2023-02-11T17:09:52.255Z,61.40
2023-02-11T17:13:05.147Z,61.94
2023-02-11T17:16:19.863Z,62.34
2023-02-11T17:19:32.289Z,62.93
2023-02-11T17:22:44.920Z,62.84
2023-02-11T17:25:57.345Z,62.75
2023-02-11T17:29:12.128Z,62.72
2023-02-11T17:32:24.489Z,63.16
2023-02-11T17:35:39.491Z,63.25
2023-02-11T17:38:52.189Z,63.25
2023-02-11T17:42:06.068Z,63.19
2023-02-11T17:45:21.108Z,63.64
2023-02-11T17:48:34.784Z,64.08
2023-02-11T17:51:47.139Z,63.98
2023-02-11T17:54:59.787Z,63.75
2023-02-11T17:58:12.097Z,64.56
2023-02-11T18:01:27.597Z,64.93
2023-02-11T18:04:40.513Z,65.06
2023-02-11T18:07:52.972Z,65.45
2023-02-11T18:11:10.656Z,65.83
2023-02-11T18:14:22.868Z,66.21
2023-02-11T18:17:35.365Z,65.58
2023-02-11T18:21:09.019Z,65.22
2023-02-11T18:24:21.938Z,65.65
2023-02-11T18:27:34.258Z,65.98
2023-02-11T18:30:46.960Z,65.47
2023-02-11T18:33:59.297Z,65.85
2023-02-11T18:37:13.359Z,65.70
2023-02-11T18:40:26.804Z,65.79
2023-02-11T18:43:40.187Z,65.59
2023-02-11T18:46:52.902Z,65.69
2023-02-11T18:50:06.455Z,65.82
2023-02-11T18:53:18.809Z,65.99
2023-02-11T18:56:31.497Z,65.87
2023-02-11T18:59:44.305Z,65.91
2023-02-11T19:02:58.115Z,65.44
2023-02-11T19:06:17.472Z,65.66
2023-02-11T19:09:30.334Z,65.83
2023-02-11T19:12:42.725Z,65.61
2023-02-11T19:15:55.370Z,65.87
2023-02-11T19:19:07.848Z,65.42
2023-02-11T19:22:20.503Z,65.62
2023-02-11T19:25:32.858Z,65.17
2023-02-11T19:28:45.585Z,65.31
2023-02-11T19:31:58.022Z,65.92
2023-02-11T19:35:10.732Z,65.80
2023-02-11T19:38:23.076Z,66.28
2023-02-11T19:41:35.957Z,65.72
2023-02-11T19:44:48.303Z,65.47
2023-02-11T19:48:00.898Z,65.09
2023-02-11T19:51:13.524Z,65.19
2023-02-11T19:54:26.596Z,65.40
2023-02-11T19:57:38.957Z,65.90
2023-02-11T20:00:51.588Z,66.45
2023-02-11T20:04:04.250Z,66.45
2023-02-11T20:07:16.638Z,66.80
2023-02-11T20:10:29.277Z,67.20
2023-02-11T20:13:41.703Z,67.84
2023-02-11T20:16:54.373Z,68.13
2023-02-11T20:20:07.037Z,68.45
2023-02-11T20:23:19.694Z,68.78
2023-02-11T20:26:33.013Z,68.65
2023-02-11T20:29:45.624Z,68.11
2023-02-11T20:32:58.536Z,67.37
2023-02-11T20:36:14.106Z,67.29
2023-02-11T20:39:26.879Z,67.36
2023-02-11T20:42:40.316Z,67.49
2023-02-11T20:45:52.937Z,67.46
2023-02-11T20:49:06.086Z,68.06
2023-02-11T20:52:18.478Z,68.65
2023-02-11T20:55:31.289Z,69.42
2023-02-11T20:58:43.632Z,68.94
2023-02-11T21:01:56.733Z,69.23
2023-02-11T21:05:09.151Z,69.63
2023-02-11T21:08:21.802Z,69.84
2023-02-11T21:11:34.367Z,69.88
2023-02-11T21:14:47.017Z,69.78
2023-02-11T21:17:59.377Z,69.83
2023-02-11T21:21:12.735Z,69.89
2023-02-11T21:24:25.098Z,70.16
2023-02-11T21:27:37.813Z,71.02
2023-02-11T21:30:50.943Z,71.21
2023-02-11T21:34:04.101Z,71.02
2023-02-11T21:37:16.433Z,72.08
2023-02-11T21:40:29.670Z,72.88
2023-02-11T21:43:41.977Z,73.29
2023-02-11T21:46:54.690Z,75.19
2023-02-11T21:50:07.452Z,75.59
2023-02-11T21:53:20.069Z,77.23
2023-02-11T21:56:33.539Z,78.24
2023-02-11T21:59:46.137Z,80.21
2023-02-11T22:02:58.545Z,81.26
2023-02-11T22:06:17.198Z,81.95
2023-02-11T22:09:29.670Z,82.47
2023-02-11T22:12:42.249Z,82.78
2023-02-11T22:15:59.287Z,83.53
2023-02-11T22:19:11.762Z,84.38
2023-02-11T22:22:24.098Z,85.24
2023-02-11T22:25:36.778Z,85.95
2023-02-11T22:28:49.533Z,86.70
2023-02-11T22:32:02.196Z,87.44
2023-02-11T22:35:14.653Z,87.57
2023-02-11T22:38:31.219Z,88.09
2023-02-11T22:41:44.199Z,88.54
2023-02-11T22:44:56.819Z,89.05
2023-02-11T22:48:09.146Z,89.49
2023-02-11T22:51:23.297Z,90.09
2023-02-11T22:54:36.344Z,90.06
2023-02-11T22:57:48.929Z,89.88
2023-02-11T23:01:01.287Z,89.75
2023-02-11T23:04:14.711Z,89.27
2023-02-11T23:07:27.052Z,89.40
2023-02-11T23:10:39.957Z,89.47
2023-02-11T23:13:52.429Z,89.83
2023-02-11T23:17:05.039Z,90.21
2023-02-11T23:20:17.485Z,90.83
2023-02-11T23:23:30.124Z,91.03
2023-02-11T23:26:42.864Z,91.38
2023-02-11T23:29:56.430Z,91.96
2023-02-11T23:33:09.229Z,92.16
2023-02-11T23:36:22.725Z,92.29
2023-02-11T23:39:35.133Z,92.47
2023-02-11T23:42:47.817Z,92.76
2023-02-11T23:46:00.255Z,92.94
2023-02-11T23:49:13.082Z,93.42
2023-02-11T23:52:25.569Z,93.56
2023-02-11T23:55:44.687Z,94.20
2023-02-11T23:58:58.242Z,94.59
